Time;durP1;ratioP1;P1;durP2;ratioP2;P2;SDS_P1;SDS_P2;PMS_P1;PMS_P2;Temp;Humidity;BMP_temperature;BMP_pressure;BME280_temperature;BME280_humidity;BME280_pressure;Samples;Min_cycle;Max_cycle;Signal;HPM_P1;HPM_P2
2021/07/04 00:01:18;;;;;;;12.77;8.70;;;21.40;66.10;;;;;;20766595;28;20093;-19
2021/07/04 00:11:18;;;;;;;10.57;9.15;;;21.40;66.20;;;;;;20772466;28;20037;-19
2021/07/04 00:21:19;;;;;;;9.50;8.40;;;21.40;66.20;;;;;;20738616;28;20411;-20
2021/07/04 00:31:19;;;;;;;11.23;8.70;;;21.40;66.10;;;;;;20773675;28;20057;-21
2021/07/04 00:41:20;;;;;;;8.95;7.28;;;21.40;66.10;;;;;;20768279;28;20069;-21
2021/07/04 00:51:22;;;;;;;8.83;7.20;;;21.40;66.10;;;;;;20765716;28;20041;-21
2021/07/04 01:01:22;;;;;;;9.85;6.93;;;21.30;66.10;;;;;;20773995;28;20576;-20
2021/07/04 01:11:23;;;;;;;8.10;6.68;;;21.30;66.00;;;;;;20733927;28;20061;-20
2021/07/04 01:21:26;;;;;;;8.95;6.70;;;21.30;66.00;;;;;;20778460;28;20037;-20
2021/07/04 01:31:27;;;;;;;7.18;6.38;;;21.30;66.10;;;;;;20781785;28;20037;-20
2021/07/04 01:41:27;;;;;;;7.30;6.60;;;21.30;66.50;;;;;;20773449;28;20109;-20
2021/07/04 01:51:28;;;;;;;8.27;6.83;;;21.30;66.00;;;;;;20781099;28;20033;-20
2021/07/04 02:01:29;;;;;;;11.85;6.63;;;21.30;66.00;;;;;;20783370;28;21025;-20
2021/07/04 02:11:29;;;;;;;9.57;6.93;;;21.30;66.00;;;;;;20784724;28;20069;-20
2021/07/04 02:21:30;;;;;;;7.03;6.32;;;21.20;65.90;;;;;;20744515;28;20041;-21
2021/07/04 02:31:30;;;;;;;7.43;6.28;;;21.20;65.80;;;;;;20754163;28;20413;-21
2021/07/04 02:41:32;;;;;;;6.82;5.75;;;21.20;65.70;;;;;;20795560;23;20188;-20
2021/07/04 02:51:34;;;;;;;6.63;5.75;;;21.20;65.50;;;;;;20768806;28;20032;-20
2021/07/04 03:01:34;;;;;;;10.13;5.95;;;21.20;65.90;;;;;;20824998;28;20103;-20
2021/07/04 03:11:35;;;;;;;7.85;5.60;;;21.20;65.40;;;;;;20824916;28;20037;-20
2021/07/04 03:21:35;;;;;;;6.65;5.93;;;21.10;65.10;;;;;;20823644;28;20484;-20
2021/07/04 03:31:36;;;;;;;6.30;5.63;;;21.10;65.00;;;;;;20823142;28;20037;-20
2021/07/04 03:41:37;;;;;;;6.10;5.27;;;21.10;65.00;;;;;;20824863;28;20025;-20
2021/07/04 03:51:37;;;;;;;6.22;5.63;;;21.10;64.80;;;;;;20824831;28;21203;-20
2021/07/04 04:01:38;;;;;;;9.88;5.30;;;21.20;64.80;;;;;;20821428;28;20071;-20
2021/07/04 04:11:45;;;;;;;6.45;4.80;;;21.10;64.50;;;;;;20822479;28;20511;-21
2021/07/04 04:21:46;;;;;;;5.35;4.75;;;21.10;64.50;;;;;;20823207;28;20109;-20
2021/07/04 04:31:47;;;;;;;6.20;5.28;;;21.10;64.30;;;;;;20826052;28;20123;-20
2021/07/04 04:41:49;;;;;;;7.65;4.90;;;21.10;64.30;;;;;;20837082;28;20407;-20
2021/07/04 04:51:50;;;;;;;8.65;4.75;;;21.10;64.30;;;;;;20836104;28;20103;-20
2021/07/04 05:01:50;;;;;;;7.82;4.93;;;21.10;64.30;;;;;;20836043;28;20029;-20
2021/07/04 05:11:51;;;;;;;7.82;4.97;;;21.10;64.20;;;;;;20837344;28;20395;-19
2021/07/04 05:21:52;;;;;;;6.78;3.83;;;21.10;64.20;;;;;;20852686;28;20021;-20
2021/07/04 05:31:53;;;;;;;4.88;4.40;;;21.10;64.20;;;;;;20854235;28;20033;-20
2021/07/04 05:41:53;;;;;;;8.80;4.93;;;21.10;64.20;;;;;;20852035;28;20045;-20
2021/07/04 05:51:54;;;;;;;8.23;6.13;;;21.10;64.30;;;;;;20847419;28;20463;-19
2021/07/04 06:01:54;;;;;;;5.97;5.07;;;21.10;64.50;;;;;;20852521;28;20040;-19
2021/07/04 06:11:55;;;;;;;6.57;5.70;;;21.10;64.40;;;;;;20844376;28;20096;-20
2021/07/04 06:21:56;;;;;;;8.52;5.03;;;21.10;64.40;;;;;;20821826;28;20037;-19
2021/07/04 06:31:56;;;;;;;6.28;4.93;;;21.10;64.50;;;;;;20825437;28;20451;-19
2021/07/04 06:41:57;;;;;;;14.73;5.97;;;21.10;64.50;;;;;;20826012;28;20037;-19
2021/07/04 06:51:57;;;;;;;17.83;5.25;;;21.20;65.10;;;;;;20804387;28;20072;-20
2021/07/04 07:01:58;;;;;;;25.85;6.03;;;21.20;65.00;;;;;;20761353;28;20025;-20
2021/07/04 07:11:58;;;;;;;14.93;5.80;;;21.20;65.40;;;;;;20824798;28;20029;-20
2021/07/04 07:21:59;;;;;;;19.90;6.38;;;21.30;65.60;;;;;;20816350;28;20087;-21
2021/07/04 07:32:00;;;;;;;19.33;6.50;;;21.30;65.90;;;;;;20817170;28;20051;-20
2021/07/04 07:42:01;;;;;;;14.73;5.63;;;21.30;66.40;;;;;;20820026;28;20057;-21
2021/07/04 07:52:02;;;;;;;18.23;7.35;;;21.30;66.90;;;;;;20819445;28;20112;-20
2021/07/04 08:02:03;;;;;;;34.45;7.60;;;21.40;67.00;;;;;;20819446;28;20040;-21
2021/07/04 08:12:05;;;;;;;27.02;7.13;;;21.50;67.00;;;;;;20817177;28;20029;-21
2021/07/04 08:22:05;;;;;;;17.70;7.15;;;21.50;66.80;;;;;;20819848;28;20029;-21
2021/07/04 08:32:07;;;;;;;18.08;7.63;;;21.70;66.90;;;;;;20810212;28;20081;-21
2021/07/04 08:42:07;;;;;;;43.65;7.50;;;21.50;67.20;;;;;;20825279;22;20041;-21
2021/07/04 08:52:08;;;;;;;22.77;7.83;;;21.50;67.00;;;;;;20771686;28;20539;-22
2021/07/04 09:02:11;;;;;;;33.30;15.37;;;21.60;67.50;;;;;;20765210;28;20046;-20
2021/07/04 09:12:11;;;;;;;31.50;11.55;;;21.60;68.70;;;;;;20741025;28;20033;-20
2021/07/04 09:22:12;;;;;;;18.83;10.45;;;21.70;68.60;;;;;;20760470;28;20034;-20
2021/07/04 09:32:21;;;;;;;19.08;8.13;;;21.60;68.80;;;;;;20751357;28;20076;-21
2021/07/04 09:42:22;;;;;;;15.77;10.02;;;21.70;68.50;;;;;;20749484;28;20030;-21
2021/07/04 09:52:23;;;;;;;15.95;8.23;;;21.60;67.80;;;;;;20763524;28;20105;-21
2021/07/04 10:02:23;;;;;;;24.75;9.13;;;21.70;67.40;;;;;;20780989;28;20037;-22
2021/07/04 10:12:24;;;;;;;24.50;11.25;;;21.70;67.30;;;;;;20751361;28;20053;-22
2021/07/04 10:22:25;;;;;;;32.55;12.57;;;21.80;69.10;;;;;;20773102;28;20038;-21
2021/07/04 10:32:25;;;;;;;34.38;10.68;;;21.80;70.20;;;;;;20771825;28;20037;-21
2021/07/04 10:42:36;;;;;;;22.10;9.85;;;21.80;69.00;;;;;;20778102;28;20126;-21
2021/07/04 10:52:41;;;;;;;21.70;9.45;;;21.90;67.50;;;;;;20772074;28;20034;-22
2021/07/04 11:02:57;;;;;;;12.77;8.98;;;21.80;66.60;;;;;;20763443;28;20022;-20
2021/07/04 11:13:17;;;;;;;18.13;8.88;;;21.80;66.80;;;;;;20776098;28;20029;-21
2021/07/04 11:23:25;;;;;;;14.95;7.55;;;21.80;66.90;;;;;;20750639;28;20403;-21
2021/07/04 11:33:36;;;;;;;14.77;7.77;;;21.80;66.80;;;;;;20777380;28;20033;-21
2021/07/04 11:43:41;;;;;;;13.82;8.60;;;21.90;66.80;;;;;;20766032;28;20033;-21
2021/07/04 11:53:50;;;;;;;13.88;7.78;;;21.80;67.40;;;;;;20758220;28;20062;-21
2021/07/04 12:03:52;;;;;;;16.15;8.25;;;21.90;67.40;;;;;;20720485;28;20453;-21
2021/07/04 12:13:53;;;;;;;12.77;7.88;;;21.80;67.10;;;;;;20739936;28;20058;-21
2021/07/04 12:23:54;;;;;;;11.60;6.75;;;21.80;67.10;;;;;;20739227;28;20432;-21
2021/07/04 12:33:54;;;;;;;12.32;7.15;;;21.80;67.00;;;;;;20737052;28;20049;-21
2021/07/04 12:43:55;;;;;;;11.80;7.22;;;21.80;67.10;;;;;;20736622;28;20409;-21
2021/07/04 12:53:56;;;;;;;14.52;7.53;;;21.90;67.10;;;;;;20754705;28;20396;-22
2021/07/04 13:04:03;;;;;;;9.90;7.13;;;21.90;67.00;;;;;;20752015;28;20056;-21
2021/07/04 13:14:09;;;;;;;11.65;6.82;;;21.80;66.90;;;;;;20760933;28;20036;-21
2021/07/04 13:24:31;;;;;;;10.45;6.40;;;21.90;67.00;;;;;;20751367;28;20108;-21
2021/07/04 13:34:31;;;;;;;10.20;7.32;;;21.80;66.90;;;;;;20750024;28;20026;-21
2021/07/04 13:44:36;;;;;;;9.27;6.30;;;21.80;66.80;;;;;;20757789;28;20042;-22
2021/07/04 13:54:37;;;;;;;9.65;6.10;;;21.90;66.90;;;;;;20748067;28;20026;-21
2021/07/04 14:04:37;;;;;;;11.15;6.00;;;21.90;66.80;;;;;;20760774;28;20045;-22
2021/07/04 14:14:38;;;;;;;7.80;6.33;;;21.90;66.80;;;;;;20758775;28;20240;-22
2021/07/04 14:24:38;;;;;;;8.88;6.30;;;21.90;67.50;;;;;;20767246;28;20500;-21
2021/07/04 14:34:39;;;;;;;9.57;7.93;;;21.90;67.30;;;;;;20763671;28;20026;-21
2021/07/04 14:44:40;;;;;;;7.70;6.22;;;21.90;67.30;;;;;;20787655;22;20064;-22
2021/07/04 14:54:57;;;;;;;7.18;6.22;;;22.00;67.30;;;;;;20780785;28;20076;-21
2021/07/04 15:04:59;;;;;;;8.85;5.05;;;21.90;67.30;;;;;;20755929;28;20104;-20
2021/07/04 15:14:59;;;;;;;7.18;6.10;;;21.90;67.20;;;;;;20742179;28;20408;-21
2021/07/04 15:25:00;;;;;;;10.57;6.23;;;21.90;67.10;;;;;;20766871;28;20045;-21
2021/07/04 15:35:01;;;;;;;7.97;6.05;;;21.90;67.00;;;;;;20759126;28;20472;-21
2021/07/04 15:45:03;;;;;;;7.22;5.47;;;21.90;67.10;;;;;;20745193;28;20492;-21
2021/07/04 15:55:05;;;;;;;9.48;5.47;;;21.80;67.00;;;;;;20750811;28;20495;-21
2021/07/04 16:05:06;;;;;;;6.22;5.32;;;21.80;66.90;;;;;;20770941;28;20033;-21
2021/07/04 16:15:07;;;;;;;6.70;5.10;;;21.80;66.90;;;;;;20778056;28;20064;-20
2021/07/04 16:25:08;;;;;;;7.28;5.18;;;21.80;66.90;;;;;;20770164;28;20483;-21
2021/07/04 16:35:10;;;;;;;7.72;5.25;;;21.80;66.90;;;;;;20789742;28;20018;-21
2021/07/04 16:45:13;;;;;;;6.25;5.03;;;21.80;66.90;;;;;;20782577;28;21023;-21
2021/07/04 16:55:15;;;;;;;6.72;5.38;;;21.70;66.90;;;;;;20790167;28;20041;-21
2021/07/04 17:05:16;;;;;;;14.07;5.65;;;21.70;66.90;;;;;;20775321;28;20049;-21
2021/07/04 17:15:17;;;;;;;25.52;6.50;;;21.80;68.00;;;;;;20785513;28;20033;-22
2021/07/04 17:25:18;;;;;;;15.25;7.57;;;21.80;68.30;;;;;;20794354;28;20033;-21
2021/07/04 17:35:19;;;;;;;22.80;6.90;;;21.80;68.30;;;;;;20785959;28;20120;-22
2021/07/04 17:45:21;;;;;;;16.50;6.07;;;21.80;68.30;;;;;;20779229;28;20037;-20
2021/07/04 17:55:21;;;;;;;15.40;5.95;;;21.80;68.30;;;;;;20788635;28;20095;-20
2021/07/04 18:05:22;;;;;;;16.10;6.87;;;22.20;68.50;;;;;;20785048;28;20120;-20
2021/07/04 18:15:23;;;;;;;11.35;6.13;;;22.20;68.80;;;;;;20786802;28;20480;-19
2021/07/04 18:25:23;;;;;;;14.95;6.25;;;22.40;68.50;;;;;;20779993;28;20528;-19
2021/07/04 18:35:24;;;;;;;19.52;6.20;;;22.40;68.20;;;;;;20778041;28;20069;-21
2021/07/04 18:45:25;;;;;;;13.00;6.05;;;22.40;68.20;;;;;;20777468;28;20036;-21
2021/07/04 18:55:26;;;;;;;22.63;6.53;;;22.40;68.30;;;;;;20785896;28;20071;-19
2021/07/04 19:05:32;;;;;;;12.38;5.75;;;22.10;68.70;;;;;;20748313;28;20029;-21
2021/07/04 19:15:33;;;;;;;19.20;6.97;;;22.10;68.60;;;;;;20779903;28;20033;-20
2021/07/04 19:25:34;;;;;;;11.18;4.90;;;22.00;68.50;;;;;;20749316;28;20026;-20
2021/07/04 19:35:35;;;;;;;14.07;5.25;;;22.00;68.60;;;;;;20768518;28;20034;-20
2021/07/04 19:45:36;;;;;;;7.97;5.45;;;21.90;68.50;;;;;;20772990;28;20045;-20
2021/07/04 19:55:38;;;;;;;16.45;6.72;;;21.90;68.60;;;;;;20769571;28;20164;-20
2021/07/04 20:05:40;;;;;;;9.68;4.68;;;21.90;68.60;;;;;;20770700;28;20508;-20
2021/07/04 20:15:40;;;;;;;13.63;5.13;;;21.80;68.60;;;;;;20735614;28;20556;-20
2021/07/04 20:25:41;;;;;;;11.85;6.35;;;21.80;68.50;;;;;;20722852;28;21014;-21
2021/07/04 20:35:41;;;;;;;9.98;5.13;;;21.80;69.30;;;;;;20652278;28;20495;-20
2021/07/04 20:45:42;;;;;;;14.40;5.13;;;21.90;69.20;;;;;;20651532;28;20034;-21
2021/07/04 20:55:43;;;;;;;7.82;4.45;;;21.90;69.60;;;;;;20652355;28;20022;-20
2021/07/04 21:05:45;;;;;;;11.77;4.90;;;21.90;69.60;;;;;;20671732;28;20029;-19
2021/07/04 21:15:46;;;;;;;12.40;5.25;;;21.90;70.10;;;;;;20695744;28;20026;-20
2021/07/04 21:25:46;;;;;;;10.13;4.60;;;21.90;70.20;;;;;;20707997;28;20038;-20
2021/07/04 21:35:47;;;;;;;14.13;5.30;;;21.90;70.20;;;;;;20737199;28;20034;-20
2021/07/04 21:45:50;;;;;;;14.37;4.60;;;21.90;70.10;;;;;;20773992;28;21022;-19
2021/07/04 21:55:51;;;;;;;17.85;4.95;;;21.80;70.00;;;;;;20754050;28;21018;-21
2021/07/04 22:05:52;;;;;;;13.30;5.28;;;21.80;70.20;;;;;;20751651;28;20096;-19
2021/07/04 22:15:52;;;;;;;14.65;5.35;;;21.80;70.10;;;;;;20769911;28;20034;-19
2021/07/04 22:25:53;;;;;;;8.50;5.00;;;21.80;69.90;;;;;;20771801;28;20030;-20
2021/07/04 22:35:54;;;;;;;14.23;5.07;;;21.80;69.70;;;;;;20789928;28;20042;-20
2021/07/04 22:45:54;;;;;;;8.73;4.78;;;21.80;69.60;;;;;;20773083;28;20030;-20
2021/07/04 22:55:56;;;;;;;10.38;4.20;;;21.80;69.50;;;;;;20782844;28;20436;-19
2021/07/04 23:05:57;;;;;;;12.35;4.45;;;21.90;69.60;;;;;;20787096;28;20038;-19
2021/07/04 23:15:57;;;;;;;6.75;4.15;;;21.70;69.40;;;;;;20781485;28;20394;-20
2021/07/04 23:25:58;;;;;;;8.23;4.13;;;21.80;69.60;;;;;;20766361;28;20088;-21
2021/07/04 23:35:58;;;;;;;6.55;4.32;;;21.80;69.50;;;;;;20764158;28;20400;-20
2021/07/04 23:45:59;;;;;;;7.50;4.13;;;21.80;69.50;;;;;;20769400;28;20063;-20
2021/07/04 23:55:59;;;;;;;6.18;3.80;;;21.80;69.50;;;;;;20774809;28;20064;-19
